createdAt,value
2019-04-21T00:01:58.213Z,20.00
2019-04-21T00:04:43.197Z,20.00
2019-04-21T00:07:20.313Z,19.90
2019-04-21T00:09:56.288Z,19.90
2019-04-21T00:12:22.849Z,19.90
2019-04-21T00:14:47.146Z,19.80
2019-04-21T00:17:14.069Z,19.80
2019-04-21T00:19:45.952Z,19.80
2019-04-21T00:22:30.155Z,19.80
2019-04-21T00:25:04.299Z,19.80
2019-04-21T00:27:33.442Z,19.80
2019-04-21T00:30:10.707Z,19.70
2019-04-21T00:32:35.492Z,19.70
2019-04-21T00:35:02.554Z,19.70
2019-04-21T00:37:49.372Z,19.70
2019-04-21T00:40:16.158Z,19.70
2019-04-21T00:42:48.440Z,19.70
2019-04-21T00:45:22.281Z,19.70
2019-04-21T00:47:58.771Z,19.60
2019-04-21T00:50:34.272Z,19.60
2019-04-21T00:53:22.496Z,19.60
2019-04-21T00:55:44.463Z,19.60
2019-04-21T00:58:17.588Z,19.50
2019-04-21T01:00:51.105Z,19.50
2019-04-21T01:03:20.571Z,19.50
2019-04-21T01:05:52.850Z,19.50
2019-04-21T01:08:21.460Z,19.50
2019-04-21T01:10:47.805Z,19.50
2019-04-21T01:13:27.294Z,19.50
2019-04-21T01:15:59.097Z,19.40
2019-04-21T01:18:34.203Z,19.40
2019-04-21T01:20:42.558Z,19.40
2019-04-21T01:23:12.837Z,19.40
2019-04-21T01:25:57.167Z,19.40
2019-04-21T01:28:29.332Z,19.40
2019-04-21T01:31:05.716Z,19.40
2019-04-21T01:36:08.261Z,19.50
2019-04-21T01:38:52.435Z,19.40
2019-04-21T01:41:21.108Z,19.40
2019-04-21T01:43:45.734Z,19.30
2019-04-21T01:46:14.168Z,19.30
2019-04-21T01:48:42.888Z,19.30
2019-04-21T01:51:18.736Z,19.30
2019-04-21T01:54:03.287Z,19.20
2019-04-21T01:56:30.429Z,19.20
2019-04-21T01:58:53.911Z,19.20
2019-04-21T02:01:33.527Z,19.30
2019-04-21T02:04:22.726Z,19.20
2019-04-21T02:06:39.113Z,19.30
2019-04-21T02:09:14.012Z,19.20
2019-04-21T02:11:52.051Z,19.20
2019-04-21T02:14:20.767Z,19.10
2019-04-21T02:16:48.262Z,19.10
2019-04-21T02:19:18.264Z,19.10
2019-04-21T02:21:44.291Z,19.10
2019-04-21T02:24:33.336Z,19.10
2019-04-21T02:27:04.684Z,19.00
2019-04-21T02:29:37.630Z,19.10
2019-04-21T02:32:11.067Z,19.00
2019-04-21T02:37:28.493Z,18.90
2019-04-21T02:39:51.389Z,18.90
2019-04-21T02:42:07.904Z,18.90
2019-04-21T02:44:52.098Z,18.90
2019-04-21T02:47:31.386Z,18.90
2019-04-21T02:49:59.567Z,18.90
2019-04-21T02:52:31.944Z,18.90
2019-04-21T02:55:01.226Z,18.90
2019-04-21T02:57:26.870Z,18.80
2019-04-21T03:02:40.696Z,18.80
2019-04-21T03:05:28.463Z,18.80
2019-04-21T03:08:00.648Z,18.70
2019-04-21T03:13:06.029Z,18.70
2019-04-21T03:18:07.566Z,18.60
2019-04-21T03:20:36.498Z,18.70
2019-04-21T03:23:15.389Z,18.60
2019-04-21T03:38:19.057Z,18.60
2019-04-21T03:40:47.135Z,18.50
2019-04-21T03:43:22.675Z,18.50
2019-04-21T03:48:27.132Z,18.50
2019-04-21T03:53:24.746Z,18.50
2019-04-21T03:56:14.862Z,18.50
2019-04-21T03:58:53.054Z,18.50
2019-04-21T04:01:05.987Z,18.40
2019-04-21T04:04:06.138Z,18.40
2019-04-21T04:06:28.380Z,18.50
2019-04-21T04:09:19.427Z,18.50
2019-04-21T04:11:45.681Z,18.50
2019-04-21T04:16:57.081Z,18.50
2019-04-21T04:19:18.779Z,18.50
2019-04-21T04:21:56.822Z,18.40
2019-04-21T04:31:47.435Z,18.20
2019-04-21T04:34:39.136Z,18.30
2019-04-21T04:37:05.406Z,18.20
2019-04-21T04:42:26.269Z,18.30
2019-04-21T04:44:57.074Z,18.20
2019-04-21T04:47:20.514Z,18.30
2019-04-21T04:54:59.373Z,18.20
2019-04-21T04:57:45.182Z,18.20
2019-04-21T05:00:01.731Z,18.20
2019-04-21T05:05:09.070Z,18.10
2019-04-21T05:07:34.231Z,18.10
2019-04-21T05:10:17.895Z,18.10
2019-04-21T05:12:29.291Z,18.20
2019-04-21T05:20:18.596Z,18.20
2019-04-21T05:22:36.711Z,18.30
2019-04-21T05:24:58.000Z,18.40
2019-04-21T05:27:33.401Z,18.50
2019-04-21T05:30:22.121Z,18.50
2019-04-21T05:32:54.170Z,18.50
2019-04-21T05:35:39.162Z,18.40
2019-04-21T05:38:10.435Z,18.40
2019-04-21T05:40:39.873Z,18.50
2019-04-21T05:43:21.302Z,18.70
2019-04-21T05:45:53.544Z,18.90
2019-04-21T05:50:55.497Z,19.00
2019-04-21T05:56:04.962Z,19.20
2019-04-21T05:58:31.717Z,19.30
2019-04-21T06:03:47.656Z,19.50
2019-04-21T06:06:13.758Z,19.70
2019-04-21T06:08:53.697Z,19.80
2019-04-21T06:13:51.553Z,19.90
2019-04-21T06:16:13.792Z,20.00
2019-04-21T06:18:53.167Z,20.10
2019-04-21T06:21:18.885Z,20.20
2019-04-21T06:23:51.479Z,20.20
2019-04-21T06:29:10.196Z,20.40
2019-04-21T06:31:57.803Z,20.60
2019-04-21T06:34:00.227Z,20.70
2019-04-21T06:36:45.149Z,20.80
2019-04-21T06:39:12.279Z,20.90
2019-04-21T06:41:38.029Z,21.00
2019-04-21T06:49:17.304Z,21.10
2019-04-21T06:51:48.325Z,21.20
2019-04-21T06:54:22.034Z,21.20
2019-04-21T06:56:51.609Z,21.30
2019-04-21T06:59:26.596Z,21.20
2019-04-21T07:04:31.774Z,21.30
2019-04-21T07:06:59.272Z,21.30
2019-04-21T07:09:31.441Z,21.30
2019-04-21T07:12:06.190Z,21.30
2019-04-21T07:14:44.226Z,21.40
2019-04-21T07:17:15.988Z,21.40
2019-04-21T07:22:19.426Z,21.40
2019-04-21T07:24:46.254Z,21.60
2019-04-21T07:27:16.296Z,21.70
2019-04-21T07:29:53.457Z,21.80
2019-04-21T07:32:20.603Z,22.00
2019-04-21T07:34:51.168Z,22.10
2019-04-21T07:37:25.488Z,22.30
2019-04-21T07:39:50.574Z,22.50
2019-04-21T07:42:25.415Z,22.50
2019-04-21T07:44:53.533Z,22.60
2019-04-21T07:47:27.091Z,22.70
2019-04-21T07:50:16.211Z,22.70
2019-04-21T07:52:53.405Z,22.80
2019-04-21T07:57:44.184Z,22.70
2019-04-21T08:00:30.800Z,22.70
2019-04-21T08:02:54.036Z,22.70
2019-04-21T08:05:26.390Z,22.70
2019-04-21T08:10:26.279Z,23.00
2019-04-21T08:13:04.223Z,23.10
2019-04-21T08:15:34.055Z,23.20
2019-04-21T08:18:06.109Z,23.30
2019-04-21T08:20:35.262Z,23.50
2019-04-21T08:23:13.177Z,23.60
2019-04-21T08:25:57.377Z,23.60
2019-04-21T08:28:08.936Z,23.60
2019-04-21T08:30:47.791Z,23.60
2019-04-21T08:33:30.574Z,23.60
2019-04-21T08:38:21.916Z,23.60
2019-04-21T08:40:56.308Z,23.70
2019-04-21T08:43:40.016Z,23.70
2019-04-21T08:46:02.061Z,23.80
2019-04-21T08:48:29.083Z,23.90
2019-04-21T08:51:14.206Z,23.90
2019-04-21T08:53:34.898Z,23.90
2019-04-21T08:56:25.678Z,23.90
2019-04-21T08:59:13.811Z,23.90
2019-04-21T09:01:55.479Z,23.90
2019-04-21T09:04:24.537Z,23.90
2019-04-21T09:07:20.009Z,24.00
2019-04-21T09:09:30.907Z,24.10
2019-04-21T09:11:59.671Z,24.20
2019-04-21T09:14:37.072Z,24.20
2019-04-21T09:17:03.203Z,24.30
2019-04-21T09:19:44.618Z,24.30
2019-04-21T09:22:07.136Z,24.40
2019-04-21T09:24:41.205Z,24.50
2019-04-21T09:27:10.051Z,24.50
2019-04-21T09:29:35.893Z,24.60
2019-04-21T09:32:00.043Z,24.60
2019-04-21T09:34:36.077Z,24.60
2019-04-21T09:37:17.128Z,24.60
2019-04-21T09:39:38.379Z,24.60
2019-04-21T09:42:06.534Z,24.70
2019-04-21T09:44:40.465Z,24.60
2019-04-21T09:47:09.188Z,24.60
2019-04-21T09:49:41.520Z,24.60
2019-04-21T09:52:18.617Z,24.80
2019-04-21T09:54:54.832Z,25.00
2019-04-21T09:57:27.591Z,25.20
2019-04-21T09:59:55.962Z,25.40
2019-04-21T10:02:31.025Z,25.70
2019-04-21T10:04:50.635Z,25.90
2019-04-21T10:07:26.528Z,26.10
2019-04-21T10:09:54.620Z,26.40
2019-04-21T10:12:25.550Z,26.80
2019-04-21T10:14:55.904Z,27.30
2019-04-21T10:17:27.793Z,27.80
2019-04-21T10:19:58.731Z,28.20
2019-04-21T10:22:31.000Z,28.60
2019-04-21T10:25:02.857Z,29.10
2019-04-21T10:27:33.149Z,29.40
2019-04-21T10:30:05.729Z,29.80
2019-04-21T10:32:36.478Z,30.20
2019-04-21T10:35:08.391Z,30.50
2019-04-21T10:37:50.817Z,30.60
2019-04-21T10:40:12.214Z,30.50
2019-04-21T10:42:42.520Z,29.70
2019-04-21T10:45:14.732Z,29.00
2019-04-21T10:47:45.067Z,28.20
2019-04-21T10:50:16.268Z,27.70
2019-04-21T10:53:07.029Z,27.10
2019-04-21T10:55:54.273Z,26.60
2019-04-21T10:58:14.201Z,26.10
2019-04-21T11:00:46.231Z,25.70
2019-04-21T11:03:33.277Z,25.50
2019-04-21T11:06:08.634Z,25.40
2019-04-21T11:08:44.131Z,25.30
2019-04-21T11:11:12.124Z,25.10
2019-04-21T11:13:42.403Z,25.00
2019-04-21T11:16:13.116Z,24.90
2019-04-21T11:18:44.106Z,24.80
2019-04-21T11:21:14.501Z,24.80
2019-04-21T11:23:45.874Z,24.70
2019-04-21T11:26:16.140Z,24.70
2019-04-21T11:28:47.268Z,24.70
2019-04-21T11:31:18.818Z,24.60
2019-04-21T11:33:49.183Z,24.60
2019-04-21T11:36:19.557Z,24.50
2019-04-21T11:39:06.203Z,24.50
2019-04-21T11:41:23.725Z,24.50
2019-04-21T11:43:55.016Z,24.40
2019-04-21T11:46:26.656Z,24.40
2019-04-21T11:48:58.037Z,24.40
2019-04-21T11:51:28.974Z,24.40
2019-04-21T11:53:59.340Z,24.40
2019-04-21T11:56:30.502Z,24.50
2019-04-21T11:59:01.701Z,24.50
2019-04-21T12:01:33.799Z,24.30
2019-04-21T12:04:05.414Z,24.30
2019-04-21T12:06:41.574Z,24.20
2019-04-21T12:09:09.549Z,24.10
2019-04-21T12:11:41.030Z,24.10
2019-04-21T12:14:14.103Z,24.10
2019-04-21T12:16:44.594Z,24.20
2019-04-21T12:19:14.725Z,24.30
2019-04-21T12:21:53.084Z,24.30
2019-04-21T12:24:17.894Z,24.30
2019-04-21T12:26:48.021Z,24.30
2019-04-21T12:29:18.899Z,24.30
2019-04-21T12:31:57.214Z,24.30
2019-04-21T12:34:28.047Z,24.30
2019-04-21T12:36:59.131Z,24.30
2019-04-21T12:39:30.506Z,24.30
2019-04-21T12:42:00.892Z,24.20
2019-04-21T12:44:31.666Z,24.30
2019-04-21T12:47:01.833Z,24.40
2019-04-21T12:49:32.202Z,24.40
2019-04-21T12:52:03.731Z,24.50
2019-04-21T12:54:35.394Z,24.50
2019-04-21T12:57:07.668Z,24.50
2019-04-21T12:59:39.515Z,24.40
2019-04-21T13:02:09.780Z,24.40
2019-04-21T13:04:40.096Z,24.50
2019-04-21T13:07:10.315Z,24.50
2019-04-21T13:09:40.306Z,24.40
2019-04-21T13:12:11.082Z,24.50
2019-04-21T13:14:42.114Z,24.40
2019-04-21T13:17:13.143Z,24.40
2019-04-21T13:19:43.488Z,24.30
2019-04-21T13:22:14.117Z,24.40
2019-04-21T13:24:44.630Z,24.40
2019-04-21T13:27:15.623Z,24.40
2019-04-21T13:29:46.250Z,24.40
2019-04-21T13:32:16.583Z,24.40
2019-04-21T13:34:47.770Z,24.40
2019-04-21T13:37:19.384Z,24.50
2019-04-21T13:40:19.092Z,24.40
2019-04-21T13:42:35.758Z,24.40
2019-04-21T13:45:00.944Z,24.40
2019-04-21T13:47:30.593Z,24.40
2019-04-21T13:50:02.890Z,24.40
2019-04-21T13:52:33.205Z,24.40
2019-04-21T13:55:05.476Z,24.40
2019-04-21T13:57:36.566Z,24.50
2019-04-21T14:00:08.974Z,24.40
2019-04-21T14:02:40.649Z,24.40
2019-04-21T14:05:13.449Z,24.40
2019-04-21T14:07:43.983Z,24.40
2019-04-21T14:10:16.038Z,24.40
2019-04-21T14:12:46.761Z,24.40
2019-04-21T14:15:18.428Z,24.30
2019-04-21T14:17:48.986Z,24.40
2019-04-21T14:20:19.921Z,24.50
2019-04-21T14:22:50.054Z,24.50
2019-04-21T14:28:26.228Z,24.40
2019-04-21T14:30:56.563Z,24.40
2019-04-21T14:33:27.812Z,24.40
2019-04-21T14:35:58.894Z,24.50
2019-04-21T14:38:29.142Z,24.40
2019-04-21T14:40:59.878Z,24.40
2019-04-21T14:43:30.181Z,24.40
2019-04-21T14:46:15.228Z,24.40
2019-04-21T14:49:03.431Z,24.40
2019-04-21T14:51:38.878Z,24.40
2019-04-21T14:54:26.911Z,24.50
2019-04-21T14:56:57.672Z,24.50
2019-04-21T14:59:28.851Z,24.40
2019-04-21T15:01:59.970Z,24.50
2019-04-21T15:04:31.546Z,24.40
2019-04-21T15:07:03.242Z,24.40
2019-04-21T15:09:35.872Z,24.40
2019-04-21T15:12:07.839Z,24.40
2019-04-21T15:14:38.221Z,24.40
2019-04-21T15:17:09.093Z,24.30
2019-04-21T15:19:42.882Z,24.30
2019-04-21T15:22:12.278Z,24.30
2019-04-21T15:24:42.617Z,24.30
2019-04-21T15:27:12.841Z,24.30
2019-04-21T15:29:43.053Z,24.40
2019-04-21T15:32:14.777Z,24.30
2019-04-21T15:34:46.247Z,24.30
2019-04-21T15:37:17.804Z,24.30
2019-04-21T15:39:48.837Z,24.30
2019-04-21T15:42:18.965Z,24.30
2019-04-21T15:44:50.405Z,24.40
2019-04-21T15:47:21.942Z,24.30
2019-04-21T15:50:02.940Z,24.30
2019-04-21T15:52:27.914Z,24.30
2019-04-21T15:55:03.260Z,24.30
2019-04-21T15:57:35.529Z,24.20
2019-04-21T16:00:08.826Z,24.20
2019-04-21T16:02:44.527Z,24.20
2019-04-21T16:05:16.922Z,24.20
2019-04-21T16:07:47.950Z,24.20
2019-04-21T16:10:33.344Z,24.10
2019-04-21T16:12:51.761Z,24.10
2019-04-21T16:15:24.169Z,24.10
2019-04-21T16:17:55.236Z,24.10
2019-04-21T16:20:25.931Z,24.10
2019-04-21T16:22:56.847Z,24.10
2019-04-21T16:25:28.445Z,24.10
2019-04-21T16:27:59.504Z,24.10
2019-04-21T16:30:30.819Z,24.00
2019-04-21T16:33:01.957Z,24.00
2019-04-21T16:35:32.058Z,23.90
2019-04-21T16:38:02.821Z,23.90
2019-04-21T16:40:46.811Z,23.90
2019-04-21T16:43:08.086Z,23.80
2019-04-21T16:45:39.128Z,23.80
2019-04-21T16:48:09.577Z,23.80
2019-04-21T16:50:39.714Z,23.80
2019-04-21T16:53:12.248Z,23.70
2019-04-21T16:56:02.751Z,23.70
2019-04-21T16:58:38.794Z,23.60
2019-04-21T17:01:19.734Z,23.50
2019-04-21T17:03:48.610Z,23.40
2019-04-21T17:06:19.372Z,23.40
2019-04-21T17:08:50.600Z,23.30
2019-04-21T17:11:28.705Z,23.30
2019-04-21T17:13:54.053Z,23.30
2019-04-21T17:19:05.142Z,23.20
2019-04-21T17:21:28.086Z,23.20
2019-04-21T17:23:58.943Z,23.20
2019-04-21T17:26:29.258Z,23.10
2019-04-21T17:29:00.605Z,23.10
2019-04-21T17:31:30.839Z,23.00
2019-04-21T17:34:08.612Z,23.00
2019-04-21T17:36:34.808Z,22.90
2019-04-21T17:39:06.839Z,22.90
2019-04-21T17:41:42.489Z,22.80
2019-04-21T17:44:10.538Z,22.80
2019-04-21T17:46:50.009Z,22.70
2019-04-21T17:49:14.969Z,22.60
2019-04-21T17:51:57.270Z,22.50
2019-04-21T17:54:33.842Z,22.50
2019-04-21T17:57:21.622Z,22.50
2019-04-21T18:00:00.106Z,22.50
2019-04-21T18:02:22.941Z,22.50
2019-04-21T18:04:57.848Z,22.40
2019-04-21T18:07:27.549Z,22.40
2019-04-21T18:10:03.344Z,22.40
2019-04-21T18:12:29.211Z,22.30
2019-04-21T18:14:59.217Z,22.40
2019-04-21T18:17:18.643Z,22.30
2019-04-21T18:19:51.290Z,22.30
2019-04-21T18:22:23.970Z,22.20
2019-04-21T18:25:04.817Z,22.10
2019-04-21T18:27:30.022Z,22.10
2019-04-21T18:30:04.384Z,22.10
2019-04-21T18:32:39.038Z,22.00
2019-04-21T18:35:20.884Z,21.90
2019-04-21T18:38:04.472Z,21.90
2019-04-21T18:40:30.876Z,21.80
2019-04-21T18:43:38.328Z,21.70
2019-04-21T18:45:55.302Z,21.60
2019-04-21T18:48:17.296Z,21.60
2019-04-21T18:50:47.854Z,21.50
2019-04-21T18:53:23.865Z,21.50
2019-04-21T18:55:48.244Z,21.40
2019-04-21T18:58:15.883Z,21.30
2019-04-21T19:00:48.784Z,21.10
2019-04-21T19:03:27.334Z,21.00
2019-04-21T19:05:58.289Z,20.90
2019-04-21T19:08:51.380Z,20.80
2019-04-21T19:11:16.643Z,20.70
2019-04-21T19:14:17.569Z,20.60
2019-04-21T19:17:00.836Z,20.40
2019-04-21T19:19:37.963Z,20.40
2019-04-21T19:21:33.438Z,20.40
2019-04-21T19:24:17.969Z,20.50
2019-04-21T19:29:19.703Z,20.50
2019-04-21T19:31:49.760Z,20.60
2019-04-21T19:34:07.757Z,20.60
2019-04-21T19:36:33.141Z,20.60
2019-04-21T19:39:12.840Z,20.60
2019-04-21T19:41:51.954Z,20.60
2019-04-21T19:44:28.200Z,20.70
2019-04-21T19:47:01.340Z,20.80
2019-04-21T19:49:34.999Z,21.00
2019-04-21T19:51:53.981Z,21.10
2019-04-21T19:54:26.136Z,21.20
2019-04-21T19:56:49.410Z,21.20
2019-04-21T19:59:31.879Z,21.30
2019-04-21T20:01:51.437Z,21.30
2019-04-21T20:04:31.844Z,21.30
2019-04-21T20:07:03.013Z,21.30
2019-04-21T20:09:40.788Z,21.30
2019-04-21T20:12:10.699Z,21.30
2019-04-21T20:14:56.047Z,21.30
2019-04-21T20:17:13.737Z,21.30
2019-04-21T20:19:34.189Z,21.20
2019-04-21T20:22:05.285Z,21.20
2019-04-21T20:24:39.322Z,21.20
2019-04-21T20:27:15.586Z,21.10
2019-04-21T20:29:57.532Z,21.20
2019-04-21T20:32:30.573Z,21.10
2019-04-21T20:35:09.360Z,21.10
2019-04-21T20:37:33.946Z,21.10
2019-04-21T20:39:54.871Z,21.00
2019-04-21T20:42:30.678Z,21.00
2019-04-21T20:45:24.956Z,20.90
2019-04-21T20:47:34.535Z,20.90
2019-04-21T20:50:11.395Z,20.90
2019-04-21T20:52:47.932Z,20.80
2019-04-21T20:55:11.858Z,20.80
2019-04-21T20:57:41.931Z,20.80
2019-04-21T21:00:18.761Z,20.80
2019-04-21T21:02:52.073Z,20.70
2019-04-21T21:05:23.348Z,20.70
2019-04-21T21:07:56.924Z,20.60
2019-04-21T21:10:31.468Z,20.70
2019-04-21T21:13:08.840Z,20.60
2019-04-21T21:15:30.294Z,20.60
2019-04-21T21:18:15.556Z,20.60
2019-04-21T21:20:36.847Z,20.60
2019-04-21T21:23:02.913Z,20.60
2019-04-21T21:25:45.231Z,20.50
2019-04-21T21:28:04.286Z,20.50
2019-04-21T21:30:37.619Z,20.50
2019-04-21T21:33:17.227Z,20.50
2019-04-21T21:35:41.106Z,20.50
2019-04-21T21:38:23.985Z,20.50
2019-04-21T21:40:51.405Z,20.50
2019-04-21T21:43:13.121Z,20.50
2019-04-21T21:45:47.574Z,20.50
2019-04-21T21:48:26.393Z,20.50
2019-04-21T21:50:53.666Z,20.40
2019-04-21T21:53:21.573Z,20.40
2019-04-21T21:55:48.791Z,20.40
2019-04-21T21:58:25.245Z,20.40
2019-04-21T22:00:58.489Z,20.40
2019-04-21T22:03:31.833Z,20.40
2019-04-21T22:06:01.893Z,20.30
2019-04-21T22:08:30.262Z,20.30
2019-04-21T22:11:03.196Z,20.30
2019-04-21T22:13:46.161Z,20.30
2019-04-21T22:16:10.382Z,20.30
2019-04-21T22:18:59.906Z,20.30
2019-04-21T22:21:26.368Z,20.30
2019-04-21T22:23:50.639Z,20.30
2019-04-21T22:26:15.484Z,20.30
2019-04-21T22:28:45.701Z,20.30
2019-04-21T22:31:22.419Z,20.20
2019-04-21T22:33:52.727Z,20.20
2019-04-21T22:36:32.888Z,20.10
2019-04-21T22:39:09.239Z,20.10
2019-04-21T22:41:30.965Z,20.10
2019-04-21T22:43:55.913Z,20.10
2019-04-21T22:46:28.424Z,20.10
2019-04-21T22:49:04.983Z,20.00
2019-04-21T22:51:37.505Z,20.00
2019-04-21T22:54:02.233Z,20.00
2019-04-21T22:56:34.112Z,20.00
2019-04-21T22:59:10.868Z,20.00
2019-04-21T23:01:42.475Z,19.90
2019-04-21T23:04:08.906Z,19.90
2019-04-21T23:06:41.294Z,19.90
2019-04-21T23:09:13.232Z,20.00
2019-04-21T23:11:48.254Z,20.00
2019-04-21T23:14:16.872Z,19.90
2019-04-21T23:16:51.722Z,19.90
2019-04-21T23:19:32.195Z,20.00
2019-04-21T23:22:10.184Z,20.00
2019-04-21T23:24:46.900Z,20.00
2019-04-21T23:27:09.778Z,20.00
2019-04-21T23:29:53.823Z,19.90
2019-04-21T23:32:14.898Z,19.90
2019-04-21T23:34:35.822Z,19.90
2019-04-21T23:37:08.899Z,19.90
2019-04-21T23:39:35.501Z,19.90
2019-04-21T23:42:06.424Z,19.80
2019-04-21T23:44:41.493Z,19.80
2019-04-21T23:47:11.769Z,19.80
2019-04-21T23:49:52.146Z,19.80
2019-04-21T23:52:15.533Z,19.80
2019-04-21T23:54:43.346Z,19.70
2019-04-21T23:57:20.836Z,19.60
2019-04-21T23:59:51.334Z,19.60
